sensor_id;sensor_type;location;lat;lon;timestamp;P1;durP1;ratioP1;P2;durP2;ratioP2
57321;SDS011;43159;51.006;18.224;2024-03-23T00:59:42;17.70;;;8.10;;
57321;SDS011;43159;51.006;18.224;2024-03-23T01:09:24;17.90;;;6.40;;
57321;SDS011;43159;51.006;18.224;2024-03-23T01:19:06;19.90;;;9.80;;
57321;SDS011;43159;51.006;18.224;2024-03-23T01:28:47;19.90;;;9.30;;
57321;SDS011;43159;51.006;18.224;2024-03-23T01:38:30;19.30;;;9.60;;
57321;SDS011;43159;51.006;18.224;2024-03-23T01:48:13;15.60;;;7.70;;
57321;SDS011;43159;51.006;18.224;2024-03-23T02:05:18;24.30;;;11.30;;
57321;SDS011;43159;51.006;18.224;2024-03-23T02:15:01;24.40;;;10.40;;
57321;SDS011;43159;51.006;18.224;2024-03-23T02:24:45;19.00;;;8.70;;
57321;SDS011;43159;51.006;18.224;2024-03-23T02:34:27;22.70;;;10.30;;
57321;SDS011;43159;51.006;18.224;2024-03-23T02:44:08;25.70;;;9.60;;
57321;SDS011;43159;51.006;18.224;2024-03-23T02:53:55;28.20;;;10.60;;
57321;SDS011;43159;51.006;18.224;2024-03-23T03:03:37;17.60;;;10.00;;
57321;SDS011;43159;51.006;18.224;2024-03-23T03:13:19;24.40;;;10.00;;
57321;SDS011;43159;51.006;18.224;2024-03-23T03:23:05;21.80;;;9.30;;
57321;SDS011;43159;51.006;18.224;2024-03-23T03:32:47;23.50;;;8.50;;
57321;SDS011;43159;51.006;18.224;2024-03-23T03:42:29;18.60;;;10.10;;
57321;SDS011;43159;51.006;18.224;2024-03-23T03:52:13;22.60;;;9.50;;
57321;SDS011;43159;51.006;18.224;2024-03-23T04:01:55;8.50;;;3.70;;
57321;SDS011;43159;51.006;18.224;2024-03-23T04:11:38;18.90;;;8.10;;
57321;SDS011;43159;51.006;18.224;2024-03-23T04:21:24;19.10;;;10.00;;
57321;SDS011;43159;51.006;18.224;2024-03-23T04:31:06;16.20;;;7.20;;
57321;SDS011;43159;51.006;18.224;2024-03-23T04:40:58;22.70;;;9.30;;
57321;SDS011;43159;51.006;18.224;2024-03-23T04:50:41;24.70;;;10.70;;
57321;SDS011;43159;51.006;18.224;2024-03-23T05:00:23;24.00;;;10.20;;
57321;SDS011;43159;51.006;18.224;2024-03-23T05:10:07;18.70;;;8.40;;
57321;SDS011;43159;51.006;18.224;2024-03-23T05:19:54;21.00;;;11.20;;
57321;SDS011;43159;51.006;18.224;2024-03-23T05:29:36;24.00;;;7.40;;
57321;SDS011;43159;51.006;18.224;2024-03-23T05:39:19;14.60;;;5.60;;
57321;SDS011;43159;51.006;18.224;2024-03-23T05:49:04;18.70;;;7.60;;
57321;SDS011;43159;51.006;18.224;2024-03-23T05:58:46;23.80;;;7.80;;
57321;SDS011;43159;51.006;18.224;2024-03-23T06:15:48;18.30;;;9.00;;
57321;SDS011;43159;51.006;18.224;2024-03-23T06:25:31;19.80;;;9.10;;
57321;SDS011;43159;51.006;18.224;2024-03-23T06:35:14;12.30;;;6.90;;
57321;SDS011;43159;51.006;18.224;2024-03-23T06:45:00;18.60;;;9.20;;
57321;SDS011;43159;51.006;18.224;2024-03-23T06:54:42;16.40;;;8.90;;
57321;SDS011;43159;51.006;18.224;2024-03-23T07:04:30;18.90;;;8.30;;
57321;SDS011;43159;51.006;18.224;2024-03-23T07:14:16;15.40;;;7.70;;
57321;SDS011;43159;51.006;18.224;2024-03-23T07:23:58;16.60;;;8.00;;
57321;SDS011;43159;51.006;18.224;2024-03-23T07:33:44;12.40;;;4.80;;
57321;SDS011;43159;51.006;18.224;2024-03-23T07:43:29;25.00;;;8.80;;
57321;SDS011;43159;51.006;18.224;2024-03-23T07:53:21;13.50;;;5.60;;
57321;SDS011;43159;51.006;18.224;2024-03-23T08:03:08;16.40;;;6.70;;
57321;SDS011;43159;51.006;18.224;2024-03-23T08:12:50;14.10;;;6.90;;
57321;SDS011;43159;51.006;18.224;2024-03-23T08:22:33;11.60;;;6.30;;
57321;SDS011;43159;51.006;18.224;2024-03-23T08:32:15;13.40;;;6.70;;
57321;SDS011;43159;51.006;18.224;2024-03-23T08:41:58;11.70;;;5.30;;
57321;SDS011;43159;51.006;18.224;2024-03-23T08:51:39;14.60;;;8.00;;
57321;SDS011;43159;51.006;18.224;2024-03-23T09:01:21;9.30;;;4.10;;
57321;SDS011;43159;51.006;18.224;2024-03-23T09:11:09;12.80;;;4.60;;
57321;SDS011;43159;51.006;18.224;2024-03-23T09:20:53;11.90;;;5.40;;
57321;SDS011;43159;51.006;18.224;2024-03-23T09:30:38;13.50;;;7.20;;
57321;SDS011;43159;51.006;18.224;2024-03-23T09:40:34;14.50;;;5.90;;
57321;SDS011;43159;51.006;18.224;2024-03-23T09:50:22;18.50;;;6.10;;
57321;SDS011;43159;51.006;18.224;2024-03-23T10:00:07;13.10;;;5.30;;
57321;SDS011;43159;51.006;18.224;2024-03-23T10:09:50;10.40;;;4.30;;
57321;SDS011;43159;51.006;18.224;2024-03-23T10:19:45;14.10;;;7.50;;
57321;SDS011;43159;51.006;18.224;2024-03-23T10:29:31;13.60;;;6.70;;
57321;SDS011;43159;51.006;18.224;2024-03-23T10:39:31;14.60;;;6.90;;
57321;SDS011;43159;51.006;18.224;2024-03-23T10:49:24;10.50;;;4.40;;
57321;SDS011;43159;51.006;18.224;2024-03-23T10:59:09;13.10;;;6.80;;
57321;SDS011;43159;51.006;18.224;2024-03-23T11:09:04;10.40;;;4.70;;
57321;SDS011;43159;51.006;18.224;2024-03-23T11:19:43;10.70;;;4.20;;
57321;SDS011;43159;51.006;18.224;2024-03-23T11:29:27;16.80;;;4.80;;
57321;SDS011;43159;51.006;18.224;2024-03-23T11:39:14;11.80;;;5.10;;
57321;SDS011;43159;51.006;18.224;2024-03-23T11:49:48;9.40;;;3.80;;
57321;SDS011;43159;51.006;18.224;2024-03-23T12:09:37;11.30;;;4.10;;
57321;SDS011;43159;51.006;18.224;2024-03-23T12:19:34;9.20;;;3.30;;
57321;SDS011;43159;51.006;18.224;2024-03-23T12:29:17;9.30;;;3.30;;
57321;SDS011;43159;51.006;18.224;2024-03-23T12:38:59;7.60;;;3.10;;
57321;SDS011;43159;51.006;18.224;2024-03-23T12:48:40;8.10;;;2.10;;
57321;SDS011;43159;51.006;18.224;2024-03-23T12:58:23;18.70;;;3.10;;
57321;SDS011;43159;51.006;18.224;2024-03-23T13:08:06;9.00;;;3.30;;
57321;SDS011;43159;51.006;18.224;2024-03-23T13:17:49;11.30;;;4.00;;
57321;SDS011;43159;51.006;18.224;2024-03-23T13:34:49;12.50;;;5.70;;
57321;SDS011;43159;51.006;18.224;2024-03-23T13:44:34;9.10;;;4.10;;
57321;SDS011;43159;51.006;18.224;2024-03-23T13:54:20;9.20;;;3.20;;
57321;SDS011;43159;51.006;18.224;2024-03-23T14:04:04;10.60;;;4.00;;
57321;SDS011;43159;51.006;18.224;2024-03-23T14:21:01;13.00;;;4.00;;
57321;SDS011;43159;51.006;18.224;2024-03-23T14:30:51;11.10;;;3.00;;
57321;SDS011;43159;51.006;18.224;2024-03-23T14:40:44;15.60;;;5.90;;
57321;SDS011;43159;51.006;18.224;2024-03-23T14:50:28;20.00;;;6.50;;
57321;SDS011;43159;51.006;18.224;2024-03-23T15:00:10;14.10;;;4.20;;
57321;SDS011;43159;51.006;18.224;2024-03-23T15:09:55;9.60;;;3.20;;
57321;SDS011;43159;51.006;18.224;2024-03-23T15:19:38;27.10;;;8.70;;
57321;SDS011;43159;51.006;18.224;2024-03-23T15:29:20;14.50;;;4.50;;
57321;SDS011;43159;51.006;18.224;2024-03-23T15:39:06;5.00;;;1.90;;
57321;SDS011;43159;51.006;18.224;2024-03-23T15:48:50;10.40;;;2.70;;
57321;SDS011;43159;51.006;18.224;2024-03-23T15:58:34;6.00;;;1.60;;
57321;SDS011;43159;51.006;18.224;2024-03-23T16:08:18;4.10;;;1.40;;
57321;SDS011;43159;51.006;18.224;2024-03-23T16:17:59;3.20;;;1.40;;
57321;SDS011;43159;51.006;18.224;2024-03-23T16:27:42;3.70;;;1.80;;
57321;SDS011;43159;51.006;18.224;2024-03-23T16:37:29;7.40;;;1.90;;
57321;SDS011;43159;51.006;18.224;2024-03-23T16:47:12;6.00;;;1.70;;
57321;SDS011;43159;51.006;18.224;2024-03-23T16:56:55;9.00;;;2.50;;
57321;SDS011;43159;51.006;18.224;2024-03-23T17:06:37;9.50;;;3.10;;
57321;SDS011;43159;51.006;18.224;2024-03-23T17:16:22;9.70;;;4.10;;
57321;SDS011;43159;51.006;18.224;2024-03-23T17:26:05;19.70;;;8.40;;
57321;SDS011;43159;51.006;18.224;2024-03-23T17:35:49;48.80;;;14.30;;
57321;SDS011;43159;51.006;18.224;2024-03-23T17:45:31;18.60;;;4.70;;
57321;SDS011;43159;51.006;18.224;2024-03-23T17:55:14;15.80;;;5.40;;
57321;SDS011;43159;51.006;18.224;2024-03-23T18:05:01;25.60;;;4.50;;
57321;SDS011;43159;51.006;18.224;2024-03-23T18:14:46;10.70;;;4.00;;
57321;SDS011;43159;51.006;18.224;2024-03-23T18:24:27;32.60;;;11.70;;
57321;SDS011;43159;51.006;18.224;2024-03-23T18:34:11;94.60;;;17.40;;
57321;SDS011;43159;51.006;18.224;2024-03-23T18:43:55;24.70;;;6.00;;
57321;SDS011;43159;51.006;18.224;2024-03-23T18:53:37;8.40;;;2.80;;
57321;SDS011;43159;51.006;18.224;2024-03-23T19:03:25;13.20;;;3.50;;
57321;SDS011;43159;51.006;18.224;2024-03-23T19:13:15;18.90;;;5.10;;
57321;SDS011;43159;51.006;18.224;2024-03-23T19:22:57;10.30;;;2.40;;
57321;SDS011;43159;51.006;18.224;2024-03-23T19:32:41;6.20;;;1.70;;
57321;SDS011;43159;51.006;18.224;2024-03-23T19:42:25;7.40;;;2.20;;
57321;SDS011;43159;51.006;18.224;2024-03-23T19:52:07;7.10;;;2.10;;
57321;SDS011;43159;51.006;18.224;2024-03-23T20:01:49;9.60;;;3.60;;
57321;SDS011;43159;51.006;18.224;2024-03-23T20:11:32;45.10;;;12.10;;
57321;SDS011;43159;51.006;18.224;2024-03-23T20:21:20;23.10;;;6.80;;
57321;SDS011;43159;51.006;18.224;2024-03-23T20:31:03;24.30;;;5.30;;
57321;SDS011;43159;51.006;18.224;2024-03-23T20:50:55;15.30;;;4.10;;
57321;SDS011;43159;51.006;18.224;2024-03-23T21:00:50;11.10;;;3.20;;
57321;SDS011;43159;51.006;18.224;2024-03-23T21:10:32;9.00;;;2.20;;
57321;SDS011;43159;51.006;18.224;2024-03-23T21:20:15;7.60;;;2.60;;
57321;SDS011;43159;51.006;18.224;2024-03-23T21:30:02;8.70;;;3.00;;
57321;SDS011;43159;51.006;18.224;2024-03-23T21:39:45;7.50;;;2.50;;
57321;SDS011;43159;51.006;18.224;2024-03-23T21:49:28;11.10;;;4.10;;
57321;SDS011;43159;51.006;18.224;2024-03-23T21:59:09;9.50;;;3.40;;
57321;SDS011;43159;51.006;18.224;2024-03-23T22:08:53;12.30;;;3.00;;
57321;SDS011;43159;51.006;18.224;2024-03-23T22:18:36;11.90;;;2.90;;
57321;SDS011;43159;51.006;18.224;2024-03-23T22:28:18;13.40;;;4.40;;
57321;SDS011;43159;51.006;18.224;2024-03-23T22:38:11;14.40;;;5.00;;
57321;SDS011;43159;51.006;18.224;2024-03-23T22:47:53;10.60;;;2.50;;
57321;SDS011;43159;51.006;18.224;2024-03-23T22:57:34;10.00;;;3.60;;
57321;SDS011;43159;51.006;18.224;2024-03-23T23:07:16;12.00;;;3.60;;
57321;SDS011;43159;51.006;18.224;2024-03-23T23:16:58;12.50;;;4.10;;
57321;SDS011;43159;51.006;18.224;2024-03-23T23:26:40;11.60;;;3.10;;
57321;SDS011;43159;51.006;18.224;2024-03-23T23:36:22;7.40;;;2.80;;
57321;SDS011;43159;51.006;18.224;2024-03-23T23:46:05;10.20;;;3.00;;
57321;SDS011;43159;51.006;18.224;2024-03-23T23:55:47;9.60;;;3.50;;
